Time;durP1;ratioP1;P1;durP2;ratioP2;P2;SDS_P1;SDS_P2;PMS_P1;PMS_P2;Temp;Humidity;BMP_temperature;BMP_pressure;BME280_temperature;BME280_humidity;BME280_pressure;Samples;Min_cycle;Max_cycle;Signal;HPM_P1;HPM_P2
2022/08/05 00:00:16;;;;;;;4.13;2.67;;;28.50;65.90;;;29.28;44.33;100248.06;5011033;28;20610;-63
2022/08/05 00:02:46;;;;;;;2.80;2.60;;;28.30;66.10;;;29.27;44.26;100257.16;4977602;28;20629;-65
2022/08/05 00:05:19;;;;;;;7.50;3.57;;;28.30;66.40;;;29.44;44.65;100258.03;5012701;28;20640;-64
2022/08/05 00:08:08;;;;;;;4.67;3.00;;;28.30;66.70;;;29.21;45.13;100255.44;5031283;28;20641;-65
2022/08/05 00:10:56;;;;;;;2.23;2.00;;;28.10;67.20;;;29.12;45.56;100257.69;5029916;28;20613;-66
2022/08/05 00:13:31;;;;;;;6.03;4.47;;;28.10;68.10;;;28.99;47.27;100263.31;5029878;28;20687;-65
2022/08/05 00:16:09;;;;;;;6.37;4.50;;;28.00;69.70;;;28.85;48.54;100253.94;5029781;28;21045;-65
2022/08/05 00:18:42;;;;;;;5.73;5.00;;;27.90;70.80;;;28.86;48.18;100248.31;5030161;28;21018;-63
2022/08/05 00:21:11;;;;;;;10.50;5.60;;;27.80;71.40;;;28.71;48.97;100247.19;5029632;28;20731;-63
2022/08/05 00:23:43;;;;;;;10.10;5.83;;;27.70;72.30;;;28.70;49.41;100242.88;5022103;28;20755;-63
2022/08/05 00:26:19;;;;;;;18.90;8.07;;;27.70;73.10;;;28.65;50.02;100243.59;5015149;28;20727;-63
2022/08/05 00:28:48;;;;;;;8.97;7.23;;;27.70;73.70;;;28.53;50.62;100245.44;5030095;28;21244;-65
2022/08/05 00:31:15;;;;;;;25.20;8.20;;;27.60;74.70;;;28.52;50.41;100241.13;5029163;28;21048;-65
2022/08/05 00:34:04;;;;;;;12.97;8.00;;;27.60;75.00;;;28.53;50.30;100242.75;5029809;28;20608;-64
2022/08/05 00:36:51;;;;;;;15.90;8.57;;;27.60;75.80;;;28.49;50.95;100244.28;5015468;28;20653;-65
2022/08/05 00:39:39;;;;;;;8.83;7.93;;;27.50;76.80;;;28.47;51.09;100251.78;5017118;28;21228;-64
2022/08/05 00:42:38;;;;;;;12.63;8.13;;;27.50;77.50;;;28.41;51.76;100266.09;5029728;28;21061;-65
2022/08/05 00:45:07;;;;;;;8.90;8.07;;;27.40;78.20;;;28.52;51.14;100243.81;5005738;28;20650;-65
2022/08/05 00:47:39;;;;;;;9.77;8.37;;;27.40;78.30;;;28.51;51.09;100260.16;5008673;28;20649;-64
2022/08/05 00:50:23;;;;;;;14.50;8.13;;;27.50;78.70;;;28.49;51.26;100259.56;5016812;28;20731;-65
2022/08/05 00:52:52;;;;;;;11.33;8.37;;;27.40;79.20;;;28.48;51.18;100245.34;5046006;28;20712;-65
2022/08/05 00:55:22;;;;;;;14.10;7.77;;;27.40;79.60;;;28.47;51.80;100240.22;5013708;28;20665;-62
2022/08/05 00:58:17;;;;;;;9.40;8.20;;;27.40;80.20;;;28.67;51.57;100229.91;5035094;28;20747;-65
2022/08/05 01:00:46;;;;;;;3.40;3.10;;;27.50;80.20;;;28.62;51.34;100219.09;5015503;28;20731;-64
2022/08/05 01:03:16;;;;;;;10.20;8.00;;;27.50;80.30;;;28.66;51.00;100220.25;5034608;28;20616;-64
2022/08/05 01:05:50;;;;;;;9.50;7.60;;;27.50;80.30;;;28.66;50.98;100236.34;5001778;28;20708;-64
2022/08/05 01:08:21;;;;;;;14.90;7.40;;;27.50;80.70;;;28.56;51.22;100231.53;5027511;28;21339;-65
2022/08/05 01:11:22;;;;;;;8.20;6.67;;;27.40;81.10;;;28.58;51.62;100242.88;5018959;28;20605;-65
2022/08/05 01:14:27;;;;;;;6.00;5.50;;;27.40;81.30;;;28.57;51.54;100252.00;5034121;28;20731;-65
2022/08/05 01:17:27;;;;;;;6.67;5.97;;;27.40;81.50;;;28.53;51.93;100250.00;5031772;28;21084;-64
2022/08/05 01:20:40;;;;;;;6.53;5.90;;;27.40;82.20;;;28.49;51.73;100236.25;5015019;28;20635;-66
2022/08/05 01:23:40;;;;;;;7.80;6.00;;;27.40;82.20;;;28.40;51.61;100224.22;5032205;28;20995;-64
2022/08/05 01:26:34;;;;;;;6.33;5.47;;;27.30;82.50;;;28.56;51.59;100228.06;5015500;28;21388;-65
2022/08/05 01:29:10;;;;;;;6.60;5.33;;;27.40;82.60;;;28.61;50.94;100222.81;5022008;28;20672;-65
2022/08/05 01:31:47;;;;;;;6.77;6.07;;;27.40;82.70;;;28.55;51.22;100211.13;5019931;28;20649;-64
2022/08/05 01:34:24;;;;;;;6.37;5.77;;;27.40;82.70;;;28.51;51.35;100204.63;5035626;28;20670;-65
2022/08/05 01:37:03;;;;;;;7.10;5.90;;;27.30;83.20;;;28.48;51.82;100199.72;5036130;28;20755;-63
2022/08/05 01:39:33;;;;;;;7.27;6.37;;;27.30;83.30;;;28.54;51.59;100193.38;5014923;28;20728;-64
2022/08/05 01:42:16;;;;;;;7.23;5.70;;;27.30;83.50;;;28.55;51.68;100181.63;5024058;28;21106;-64
2022/08/05 01:44:45;;;;;;;6.57;6.03;;;27.40;83.60;;;28.52;51.39;100155.25;5051406;28;20628;-64
2022/08/05 01:47:21;;;;;;;7.43;6.07;;;27.30;83.60;;;28.47;51.95;100148.97;4997748;28;20641;-66
2022/08/05 01:49:51;;;;;;;7.73;7.03;;;27.30;84.00;;;28.48;52.07;100142.53;4979525;28;20662;-65
2022/08/05 01:52:30;;;;;;;7.07;6.40;;;27.30;84.60;;;28.56;51.70;100153.69;5014125;28;20636;-66
2022/08/05 01:55:02;;;;;;;7.70;7.00;;;27.30;84.40;;;28.52;52.07;100162.47;5014380;28;21287;-65
2022/08/05 01:57:38;;;;;;;13.70;8.93;;;27.20;85.60;;;28.54;51.98;100161.19;5014148;28;20648;-64
2022/08/05 02:00:26;;;;;;;9.57;8.40;;;27.30;85.00;;;28.51;52.07;100164.34;5031662;28;20629;-63
2022/08/05 02:03:08;;;;;;;10.23;8.90;;;27.30;85.20;;;28.55;51.52;100176.25;5014966;28;20671;-64
2022/08/05 02:05:52;;;;;;;12.13;9.20;;;27.30;85.40;;;28.53;51.62;100199.81;5016319;28;21738;-63
2022/08/05 02:08:27;;;;;;;9.13;7.47;;;27.30;86.30;;;28.59;51.52;100214.19;5013232;28;20660;-63
2022/08/05 02:11:10;;;;;;;15.03;8.80;;;27.30;86.60;;;28.58;51.51;100242.09;5032309;28;21239;-63
2022/08/05 02:13:51;;;;;;;10.23;7.60;;;27.30;85.80;;;28.56;51.94;100239.59;5032052;28;20660;-63
2022/08/05 02:16:50;;;;;;;8.30;7.00;;;27.30;86.50;;;28.60;51.67;100231.94;5015122;28;21015;-63
2022/08/05 02:19:32;;;;;;;13.27;7.37;;;27.30;86.40;;;28.43;52.64;100231.78;5015989;28;20676;-63
2022/08/05 02:22:23;;;;;;;8.63;7.23;;;27.20;87.10;;;28.38;52.96;100237.06;5016731;28;20635;-65
2022/08/05 02:25:04;;;;;;;7.37;6.50;;;27.20;87.50;;;28.40;51.87;100232.28;5042938;28;20647;-65
2022/08/05 02:27:37;;;;;;;10.03;7.00;;;27.20;87.40;;;28.45;52.11;100250.38;5032912;28;20726;-67
2022/08/05 02:30:28;;;;;;;7.27;6.40;;;27.20;87.80;;;28.49;52.12;100249.66;5019020;28;20601;-66
2022/08/05 02:32:57;;;;;;;7.73;6.47;;;27.20;88.20;;;28.40;52.68;100248.38;5014575;28;20771;-64
2022/08/05 02:35:27;;;;;;;7.00;6.40;;;27.20;88.70;;;28.39;52.85;100252.94;5008878;28;20637;-64
2022/08/05 02:38:06;;;;;;;6.83;6.23;;;27.10;89.00;;;28.37;52.58;100262.25;5014904;28;20660;-67
2022/08/05 02:40:40;;;;;;;6.73;6.03;;;27.10;89.20;;;28.40;52.85;100256.44;5014746;28;20604;-65
2022/08/05 02:43:12;;;;;;;6.50;5.90;;;27.10;89.50;;;28.18;52.99;100253.53;5030954;28;20625;-65
2022/08/05 02:45:42;;;;;;;6.50;5.90;;;27.00;89.90;;;28.22;53.23;100243.13;5014682;28;20623;-64
2022/08/05 02:48:22;;;;;;;13.40;6.50;;;27.00;90.10;;;28.09;53.96;100216.56;5015741;28;20692;-64
2022/08/05 02:51:00;;;;;;;6.83;6.13;;;26.90;90.20;;;28.07;53.66;100207.91;5015689;28;21183;-65
2022/08/05 02:53:29;;;;;;;8.07;6.67;;;26.80;90.30;;;28.11;53.79;100211.78;5001953;28;21204;-66
2022/08/05 02:56:09;;;;;;;10.13;6.37;;;26.80;90.40;;;28.15;53.42;100226.38;5036561;28;20687;-64
2022/08/05 02:58:42;;;;;;;6.00;5.50;;;26.90;90.50;;;28.20;53.41;100239.88;5030609;28;21076;-64
2022/08/05 03:01:16;;;;;;;5.60;5.20;;;26.90;90.40;;;28.22;52.89;100261.91;5015476;28;20695;-64
2022/08/05 03:03:53;;;;;;;5.80;5.20;;;26.90;90.50;;;28.13;52.89;100271.38;5013791;28;20624;-67
2022/08/05 03:06:40;;;;;;;5.20;4.80;;;26.90;90.70;;;28.15;53.19;100277.31;5044925;28;20678;-66
2022/08/05 03:09:25;;;;;;;7.03;5.20;;;26.90;90.70;;;28.22;52.97;100275.31;5016198;28;20620;-66
2022/08/05 03:12:04;;;;;;;7.67;5.47;;;26.90;90.70;;;28.06;53.42;100292.13;5015128;28;21235;-66
2022/08/05 03:14:31;;;;;;;6.47;4.77;;;26.80;90.80;;;28.00;54.18;100276.97;5031006;28;20969;-68
2022/08/05 03:16:58;;;;;;;12.50;5.17;;;26.80;91.30;;;27.97;54.20;100232.66;5030415;28;20664;-64
2022/08/05 03:19:26;;;;;;;5.30;4.80;;;26.80;91.50;;;27.82;54.53;100189.38;5014508;28;20645;-65
2022/08/05 03:22:02;;;;;;;6.97;4.83;;;26.70;91.60;;;27.55;55.70;100188.19;5030461;28;21007;-65
2022/08/05 03:24:44;;;;;;;8.87;5.90;;;26.60;92.30;;;27.65;55.49;100199.97;5010938;28;20617;-65
2022/08/05 03:27:16;;;;;;;7.60;6.40;;;26.50;92.40;;;27.61;55.73;100239.00;5013659;28;20660;-64
2022/08/05 03:29:43;;;;;;;6.27;5.37;;;26.50;93.00;;;27.77;55.98;100282.28;5013257;28;20604;-64
2022/08/05 03:32:30;;;;;;;7.10;5.07;;;26.50;93.30;;;27.70;57.32;100290.41;5016174;28;21172;-66
2022/08/05 03:35:01;;;;;;;5.27;4.77;;;26.50;94.30;;;27.70;57.42;100286.91;5014480;28;20616;-65
2022/08/05 03:37:31;;;;;;;5.93;5.43;;;26.50;94.50;;;27.55;57.55;100312.28;5030420;28;20711;-65
2022/08/05 03:40:13;;;;;;;6.03;4.90;;;26.40;94.70;;;27.51;57.10;100340.56;5030585;28;20630;-65
2022/08/05 03:42:41;;;;;;;6.00;5.50;;;26.40;94.70;;;27.43;57.47;100324.81;5013213;28;20706;-65
2022/08/05 03:45:19;;;;;;;4.93;4.43;;;26.30;94.90;;;27.46;57.27;100344.97;5030453;28;20735;-65
2022/08/05 03:47:49;;;;;;;5.17;4.70;;;26.30;95.00;;;27.32;58.18;100355.00;5030006;28;20676;-67
2022/08/05 03:50:17;;;;;;;5.57;5.07;;;26.30;95.50;;;27.26;59.01;100355.13;5029916;28;20632;-66
2022/08/05 03:53:05;;;;;;;7.47;5.17;;;26.20;96.10;;;27.18;59.88;100364.25;5012627;28;21061;-64
2022/08/05 03:56:02;;;;;;;5.10;4.37;;;26.10;97.00;;;27.13;59.12;100349.91;5040851;28;20620;-66
2022/08/05 03:58:52;;;;;;;7.03;3.93;;;26.00;96.80;;;26.87;59.31;100340.31;5009347;28;20683;-63
2022/08/05 04:01:21;;;;;;;7.23;5.00;;;25.90;97.00;;;26.76;59.13;100341.88;5008970;28;21230;-64
2022/08/05 04:03:50;;;;;;;4.33;3.93;;;25.80;96.70;;;26.58;58.73;100336.47;5030242;28;21251;-67
2022/08/05 04:06:36;;;;;;;3.43;3.13;;;25.70;96.30;;;26.61;58.67;100348.59;4999894;28;20645;-64
2022/08/05 04:09:07;;;;;;;3.30;3.00;;;25.60;96.90;;;26.62;58.37;100358.25;5025052;28;20663;-65
2022/08/05 04:11:36;;;;;;;5.77;2.63;;;25.50;96.70;;;26.64;58.79;100383.75;5013323;28;20624;-66
2022/08/05 04:14:18;;;;;;;3.53;3.23;;;25.50;97.20;;;26.62;58.78;100403.75;5030680;28;21218;-64
2022/08/05 04:16:58;;;;;;;5.50;3.20;;;25.50;97.30;;;26.62;59.04;100434.00;5037608;28;20661;-64
2022/08/05 04:19:28;;;;;;;4.37;3.30;;;25.40;97.60;;;26.63;59.82;100427.63;5045263;28;20620;-63
2022/08/05 04:21:55;;;;;;;3.77;3.37;;;25.40;98.20;;;26.59;59.63;100434.44;5042318;28;20666;-66
2022/08/05 04:24:39;;;;;;;4.80;2.27;;;25.40;98.20;;;26.44;60.53;100462.56;5044127;28;21188;-65
2022/08/05 04:27:12;;;;;;;2.90;2.70;;;25.40;98.70;;;26.33;61.08;100455.22;5035522;28;20644;-64
2022/08/05 04:29:40;;;;;;;3.50;2.40;;;25.20;98.90;;;26.22;61.47;100453.22;5024306;28;20623;-66
2022/08/05 04:32:08;;;;;;;2.47;2.27;;;25.20;99.10;;;26.05;61.29;100453.72;5029631;28;21241;-65
2022/08/05 04:34:36;;;;;;;3.27;3.10;;;25.00;99.30;;;26.16;61.67;100470.97;5028969;28;20640;-66
2022/08/05 04:37:09;;;;;;;4.73;2.90;;;25.00;99.70;;;26.13;61.25;100474.06;5013114;28;20725;-66
2022/08/05 04:39:36;;;;;;;3.13;2.70;;;25.00;99.70;;;26.17;61.96;100469.13;5029969;28;20708;-64
2022/08/05 04:42:05;;;;;;;3.73;2.70;;;25.00;99.90;;;26.25;61.16;100475.03;5030882;28;20645;-66
2022/08/05 04:44:32;;;;;;;2.90;2.60;;;25.00;99.90;;;26.32;61.00;100485.69;5029084;28;20665;-67
2022/08/05 04:47:00;;;;;;;2.73;2.53;;;25.00;99.90;;;26.28;61.23;100484.50;5029881;28;20618;-66
2022/08/05 04:49:39;;;;;;;2.60;2.50;;;25.10;99.90;;;26.37;60.67;100483.16;5030575;28;20739;-67
2022/08/05 04:52:26;;;;;;;3.90;2.77;;;25.10;99.90;;;26.49;60.26;100481.47;5015151;28;20639;-67
2022/08/05 04:54:55;;;;;;;5.37;3.00;;;25.20;99.90;;;26.61;60.09;100480.53;5023939;28;20620;-65
2022/08/05 04:57:24;;;;;;;4.83;2.90;;;25.20;99.60;;;26.56;59.64;100487.56;5019923;28;20702;-65
2022/08/05 04:59:56;;;;;;;3.57;3.30;;;25.30;99.50;;;26.61;59.84;100496.59;5030529;28;20667;-64
2022/08/05 05:02:25;;;;;;;6.87;3.43;;;25.30;99.50;;;26.73;59.31;100484.16;5028155;28;20729;-67
2022/08/05 05:05:09;;;;;;;2.80;2.60;;;25.40;99.40;;;26.89;58.88;100488.16;5030234;28;20670;-64
2022/08/05 05:08:00;;;;;;;3.53;3.17;;;25.50;99.30;;;27.20;58.03;100496.09;5032152;28;20757;-67
2022/08/05 05:10:37;;;;;;;3.90;3.10;;;25.80;99.00;;;27.63;56.70;100502.25;5032007;28;20621;-67
2022/08/05 05:13:10;;;;;;;4.90;3.00;;;26.10;98.30;;;27.96;55.75;100525.16;5015455;28;20640;-63
2022/08/05 05:15:40;;;;;;;3.27;2.50;;;26.40;97.70;;;28.26;54.94;100550.19;5012180;28;20667;-65
2022/08/05 05:18:25;;;;;;;3.40;2.87;;;26.70;97.10;;;28.47;54.09;100535.44;5034294;28;20677;-66
2022/08/05 05:20:57;;;;;;;3.30;3.00;;;27.00;96.50;;;28.43;54.39;100500.16;5029387;28;20621;-63
2022/08/05 05:23:24;;;;;;;3.33;3.10;;;27.10;96.10;;;28.27;53.42;100496.28;5029625;28;20637;-64
2022/08/05 05:25:51;;;;;;;4.83;2.80;;;27.00;95.70;;;28.17;54.37;100503.25;5030102;28;20617;-66
2022/08/05 05:28:18;;;;;;;2.93;2.73;;;26.80;96.00;;;27.98;54.83;100486.38;5024340;28;20752;-64
2022/08/05 05:30:46;;;;;;;2.73;2.57;;;26.70;96.20;;;27.97;55.05;100489.28;5020509;28;20670;-65
2022/08/05 05:33:15;;;;;;;2.53;2.43;;;26.70;96.50;;;28.04;54.76;100487.31;5019719;28;20624;-65
2022/08/05 05:35:46;;;;;;;2.70;2.50;;;26.70;96.70;;;27.88;55.65;100494.09;5028784;28;20641;-66
2022/08/05 05:38:15;;;;;;;4.93;3.20;;;26.60;96.80;;;27.88;55.11;100485.22;5022164;28;20676;-66
2022/08/05 05:40:54;;;;;;;3.23;2.93;;;26.60;97.10;;;28.04;54.81;100500.75;5009201;28;21144;-64
2022/08/05 05:43:22;;;;;;;3.63;2.70;;;26.60;96.60;;;28.18;53.91;100494.13;5002937;28;20629;-66
2022/08/05 05:46:09;;;;;;;3.20;2.90;;;26.80;96.30;;;28.67;53.04;100509.94;5027703;28;20631;-63
2022/08/05 05:48:45;;;;;;;3.50;3.17;;;27.10;95.80;;;29.45;50.30;100499.72;5016064;28;20656;-64
2022/08/05 05:51:32;;;;;;;4.63;2.90;;;27.70;94.70;;;30.46;48.07;100499.84;5031873;28;21153;-65
2022/08/05 05:54:17;;;;;;;3.60;3.37;;;28.50;93.40;;;30.27;48.38;100494.88;5008480;28;20966;-65
2022/08/05 05:56:46;;;;;;;2.97;2.87;;;28.70;92.10;;;31.19;45.97;100488.91;5051614;28;20664;-64
2022/08/05 05:59:13;;;;;;;2.93;2.83;;;29.20;91.50;;;31.97;44.04;100485.06;5016090;28;20641;-67
2022/08/05 06:01:41;;;;;;;2.80;2.60;;;29.90;90.40;;;32.58;41.97;100484.63;5040845;28;20708;-66
2022/08/05 06:04:23;;;;;;;2.90;2.70;;;30.40;87.70;;;32.91;40.90;100486.19;5052592;28;20653;-67
2022/08/05 06:06:51;;;;;;;2.60;2.40;;;30.70;85.20;;;33.26;40.24;100466.72;5011189;28;21019;-66
2022/08/05 06:09:18;;;;;;;3.27;3.00;;;31.00;83.10;;;34.20;38.07;100467.34;5034658;28;20641;-66
2022/08/05 06:12:02;;;;;;;2.97;2.77;;;31.60;81.60;;;34.41;37.73;100470.88;5010689;28;20732;-64
2022/08/05 06:14:30;;;;;;;2.83;2.67;;;31.90;79.10;;;34.88;36.20;100461.41;5030949;28;20731;-64
2022/08/05 06:16:58;;;;;;;2.80;2.50;;;32.40;76.60;;;35.73;34.71;100451.38;5032328;28;21260;-66
2022/08/05 06:19:45;;;;;;;4.37;3.17;;;33.00;75.20;;;36.68;33.25;100449.88;5031148;28;20627;-64
2022/08/05 06:22:31;;;;;;;4.03;2.80;;;33.70;72.80;;;37.16;32.41;100456.22;5015788;28;20633;-66
2022/08/05 06:25:01;;;;;;;2.97;2.77;;;34.20;71.00;;;37.21;32.46;100458.84;5022956;28;20612;-65
2022/08/05 06:27:48;;;;;;;2.93;2.73;;;34.10;70.10;;;36.98;32.74;100454.22;5010995;28;21258;-67
2022/08/05 06:30:35;;;;;;;2.87;2.67;;;34.00;70.40;;;36.51;33.55;100455.75;5002345;28;20625;-65
2022/08/05 06:33:02;;;;;;;2.70;2.60;;;33.70;70.90;;;37.72;31.51;100456.31;5014232;28;20653;-66
2022/08/05 06:35:29;;;;;;;5.00;2.33;;;34.10;70.00;;;38.44;30.46;100455.03;5031533;28;20613;-67
2022/08/05 06:38:16;;;;;;;2.73;2.53;;;34.70;68.10;;;38.89;29.07;100469.78;5017205;28;21042;-64
2022/08/05 06:41:02;;;;;;;2.90;2.70;;;35.30;66.10;;;38.25;29.93;100478.78;5032386;28;20982;-65
2022/08/05 06:43:30;;;;;;;3.20;2.93;;;35.50;64.90;;;37.42;31.20;100476.59;5002205;28;20729;-67
2022/08/05 06:46:17;;;;;;;3.57;3.03;;;35.00;64.60;;;37.57;31.24;100481.06;5012853;28;20605;-67
2022/08/05 06:48:44;;;;;;;2.53;2.43;;;35.00;64.50;;;37.23;31.33;100489.31;5024416;28;20671;-67
2022/08/05 06:51:22;;;;;;;3.03;2.50;;;34.70;64.50;;;36.64;31.30;100497.75;5038164;28;20738;-67
2022/08/05 06:54:02;;;;;;;3.03;2.60;;;34.40;63.30;;;37.64;29.86;100506.81;5039563;28;20719;-66
2022/08/05 06:56:30;;;;;;;5.53;2.70;;;34.70;63.80;;;37.80;29.45;100521.06;5052046;28;20620;-67
2022/08/05 06:59:05;;;;;;;2.47;2.20;;;34.90;62.60;;;36.18;32.25;100524.47;5035508;28;21301;-67
2022/08/05 07:01:35;;;;;;;4.57;2.70;;;34.30;63.20;;;35.07;33.74;100515.88;5014913;28;20640;-67
2022/08/05 07:04:02;;;;;;;3.70;2.17;;;33.60;64.20;;;34.45;34.86;100523.44;5029848;28;20640;-67
2022/08/05 07:06:30;;;;;;;2.80;2.33;;;33.00;65.30;;;33.72;37.09;100536.19;5031421;28;20625;-65
2022/08/05 07:08:59;;;;;;;2.97;2.43;;;32.40;67.00;;;33.22;37.60;100534.00;5030312;28;20692;-67
2022/08/05 07:11:31;;;;;;;2.77;2.57;;;31.90;68.20;;;33.15;37.80;100538.03;5031136;28;21117;-66
2022/08/05 07:16:59;;;;;;;2.57;2.47;;;31.40;69.40;;;32.57;39.13;100541.59;5031066;28;20672;-66
2022/08/05 07:19:49;;;;;;;2.67;2.47;;;30.90;70.20;;;32.36;39.03;100547.84;5035560;28;20615;-68
2022/08/05 07:22:36;;;;;;;2.70;2.50;;;30.80;70.80;;;32.29;39.98;100550.72;5013930;28;21184;-66
2022/08/05 07:25:04;;;;;;;2.43;2.30;;;30.60;71.40;;;32.07;40.37;100550.75;5014313;28;20649;-65
2022/08/05 07:27:52;;;;;;;2.50;2.30;;;30.50;72.10;;;31.53;41.78;100553.56;5030477;28;20719;-66
2022/08/05 07:30:33;;;;;;;2.87;2.67;;;30.20;73.30;;;31.12;42.18;100549.41;5010668;28;20682;-65
2022/08/05 07:33:08;;;;;;;4.80;2.23;;;29.80;74.10;;;30.87;43.35;100566.00;5031155;28;20672;-66
2022/08/05 07:35:41;;;;;;;3.13;2.83;;;29.60;75.60;;;30.94;43.46;100538.91;5030907;28;20619;-65
2022/08/05 07:38:28;;;;;;;2.73;2.30;;;29.40;76.30;;;30.71;43.44;100522.88;5030057;28;21240;-67
2022/08/05 07:41:15;;;;;;;2.40;2.30;;;29.30;76.00;;;30.48;43.34;100515.75;5030442;28;21253;-67
2022/08/05 07:44:06;;;;;;;2.83;2.63;;;29.20;76.10;;;30.75;43.35;100499.78;5016973;28;20711;-65
2022/08/05 07:46:47;;;;;;;2.27;2.17;;;29.20;76.40;;;32.49;39.83;100498.84;5014790;28;20728;-66
2022/08/05 07:49:16;;;;;;;2.17;2.03;;;29.90;75.80;;;34.29;35.67;100506.34;5030514;28;21228;-67
2022/08/05 07:51:45;;;;;;;5.10;2.60;;;31.10;72.40;;;33.90;35.65;100505.97;5031105;28;20641;-65
2022/08/05 07:54:25;;;;;;;2.40;2.30;;;31.40;70.40;;;32.80;37.85;100506.13;5005149;28;20638;-65
2022/08/05 07:57:02;;;;;;;2.30;2.20;;;31.00;70.20;;;32.06;39.13;100514.06;5050687;28;20791;-65
2022/08/05 07:59:50;;;;;;;2.30;2.20;;;30.60;70.60;;;31.42;40.01;100522.94;5026334;28;20688;-65
2022/08/05 08:02:22;;;;;;;2.50;2.30;;;30.10;71.20;;;30.93;40.45;100481.50;5014356;28;21393;-66
2022/08/05 08:04:57;;;;;;;2.10;2.00;;;29.80;71.30;;;30.09;41.74;100500.47;5029048;28;21220;-68
2022/08/05 08:07:24;;;;;;;2.20;2.10;;;29.10;71.90;;;30.00;41.64;100510.81;5038047;28;20741;-65
2022/08/05 08:09:54;;;;;;;12.07;8.80;;;28.80;72.60;;;30.18;41.78;100525.91;5023343;28;20610;-64
2022/08/05 08:12:22;;;;;;;11.30;9.40;;;28.80;73.30;;;30.24;41.72;100558.06;5008599;28;20618;-66
2022/08/05 08:15:08;;;;;;;2.43;2.00;;;28.80;73.40;;;30.26;41.29;100564.03;5013048;28;20640;-67
2022/08/05 08:17:43;;;;;;;2.70;2.10;;;28.90;72.90;;;30.13;41.50;100548.19;5013575;28;20676;-68
2022/08/05 08:20:20;;;;;;;2.67;2.20;;;28.80;72.70;;;29.30;42.76;100545.06;5023654;28;21144;-67
2022/08/05 08:23:07;;;;;;;2.17;1.97;;;28.40;73.30;;;29.19;45.25;100534.31;4999248;28;21206;-64
2022/08/05 08:25:54;;;;;;;2.50;2.30;;;28.10;76.30;;;29.01;45.87;100519.06;5036450;28;20622;-66
2022/08/05 08:28:29;;;;;;;2.90;2.60;;;27.90;78.20;;;29.01;47.54;100511.84;5039633;28;20764;-65
2022/08/05 08:31:06;;;;;;;12.83;2.37;;;27.90;81.20;;;28.97;50.57;100505.31;5019809;28;20640;-65
2022/08/05 08:33:34;;;;;;;2.77;2.50;;;27.80;85.20;;;28.34;50.77;100520.34;5030530;28;20613;-67
2022/08/05 08:36:04;;;;;;;2.67;2.13;;;27.50;84.90;;;27.64;53.04;100533.34;5029714;28;20668;-64
2022/08/05 08:38:54;;;;;;;3.07;2.50;;;26.80;88.40;;;28.09;54.29;100533.88;5030040;28;20672;-63
2022/08/05 08:41:22;;;;;;;2.83;2.57;;;26.80;90.80;;;28.17;54.95;100524.72;5010737;28;20724;-64
2022/08/05 08:43:54;;;;;;;3.93;2.73;;;26.90;93.10;;;28.30;55.30;100532.56;5011539;28;20621;-64
2022/08/05 08:46:41;;;;;;;2.70;2.50;;;27.00;95.00;;;28.39;57.29;100533.88;5005004;28;20626;-66
2022/08/05 08:49:14;;;;;;;3.00;2.70;;;27.10;97.00;;;28.37;55.96;100530.59;5009537;28;20680;-64
2022/08/05 08:52:11;;;;;;;4.47;2.83;;;27.10;95.90;;;28.65;54.52;100487.03;5020703;28;21013;-65
2022/08/05 09:06:36;;;;;;;2.87;2.67;;;26.90;97.20;;;28.15;57.00;100489.25;5693364;23;21055;-72
2022/08/05 09:09:07;;;;;;;4.03;3.20;;;26.80;97.50;;;28.60;57.90;100501.16;5028853;28;20643;-72
2022/08/05 09:15:41;;;;;;;3.33;3.03;;;27.30;97.80;;;29.30;54.19;100504.75;5013265;28;21079;-69
2022/08/05 09:18:09;;;;;;;2.80;2.60;;;27.60;96.50;;;30.16;51.13;100503.81;4999051;28;21245;-70
2022/08/05 09:20:42;;;;;;;2.80;2.60;;;28.10;95.60;;;30.98;50.34;100496.94;5012032;28;20947;-69
2022/08/05 09:23:16;;;;;;;2.80;2.57;;;28.60;95.30;;;31.39;48.26;100499.16;4996791;28;20668;-70
2022/08/05 09:25:53;;;;;;;2.70;2.60;;;29.00;93.80;;;31.91;47.33;100491.44;5021227;28;20625;-71
2022/08/05 09:28:32;;;;;;;4.30;2.53;;;29.50;93.50;;;33.42;42.42;100484.63;4989705;28;21016;-68
2022/08/05 09:31:10;;;;;;;2.70;2.50;;;30.40;90.40;;;35.52;37.55;100474.28;4993585;28;20635;-67
2022/08/05 09:34:04;;;;;;;3.50;2.67;;;31.60;86.90;;;35.74;37.36;100491.78;4978462;28;20654;-68
2022/08/05 09:36:51;;;;;;;2.27;2.17;;;32.30;83.00;;;37.13;35.21;100509.28;4992847;28;20635;-67
2022/08/05 09:39:26;;;;;;;2.30;2.20;;;33.00;82.10;;;39.83;31.04;100523.59;5001462;28;20676;-68
2022/08/05 09:42:17;;;;;;;2.17;2.00;;;34.60;77.80;;;41.46;28.58;100552.16;4994202;28;20637;-68
2022/08/05 09:44:55;;;;;;;2.20;2.10;;;35.90;72.20;;;43.40;25.05;100555.56;4991577;28;20630;-66
2022/08/05 09:47:41;;;;;;;2.10;2.00;;;37.30;66.50;;;45.06;22.49;100565.47;4996002;28;20713;-67
2022/08/05 09:50:34;;;;;;;2.30;2.20;;;38.60;62.50;;;45.69;22.66;100562.09;5012155;28;21203;-68
2022/08/05 09:53:10;;;;;;;2.33;2.23;;;39.40;60.40;;;44.79;22.93;100561.38;5006323;28;20637;-68
2022/08/05 09:55:59;;;;;;;2.67;2.47;;;39.50;58.40;;;43.47;23.81;100548.41;4991666;28;20696;-69
2022/08/05 09:58:31;;;;;;;3.33;3.13;;;39.10;57.10;;;43.22;24.03;100546.56;5000208;28;21229;-68
2022/08/05 10:01:04;;;;;;;2.93;2.73;;;38.70;57.00;;;44.33;22.30;100545.13;5004319;28;20634;-67
2022/08/05 10:03:58;;;;;;;2.67;2.57;;;38.70;55.80;;;46.00;21.28;100542.22;4998155;28;20617;-71
2022/08/05 10:06:26;;;;;;;1.90;1.90;;;39.50;55.50;;;47.32;19.98;100545.47;5003691;28;20751;-68
2022/08/05 10:08:55;;;;;;;2.53;2.43;;;40.40;54.40;;;47.42;19.80;100547.72;4984769;28;20633;-70
2022/08/05 10:11:22;;;;;;;2.60;2.37;;;40.90;53.60;;;47.01;19.77;100549.00;5004215;23;20634;-66
2022/08/05 10:13:57;;;;;;;3.23;2.77;;;41.00;53.00;;;46.08;20.22;100549.53;4988349;28;21156;-65
2022/08/05 10:16:51;;;;;;;2.67;2.53;;;40.60;52.60;;;46.10;20.35;100561.84;5009970;28;20628;-67
2022/08/05 10:19:19;;;;;;;2.93;2.70;;;40.60;52.30;;;46.33;20.55;100567.63;4975524;28;20669;-67
2022/08/05 10:21:58;;;;;;;3.47;2.60;;;40.80;52.10;;;45.55;21.22;100566.38;5001121;28;20643;-66
2022/08/05 10:24:25;;;;;;;12.97;11.60;;;40.40;53.20;;;44.72;21.96;100568.59;4996327;28;20622;-67
2022/08/05 10:26:55;;;;;;;6.73;6.17;;;40.10;52.90;;;42.93;23.84;100565.75;4994815;28;20706;-66
2022/08/05 10:29:28;;;;;;;3.37;3.07;;;39.10;53.40;;;41.75;25.45;100566.13;4993700;28;20611;-65
2022/08/05 10:32:15;;;;;;;3.53;3.33;;;38.30;54.70;;;39.41;28.87;100568.41;4992489;28;20657;-66
2022/08/05 10:35:03;;;;;;;3.43;3.23;;;36.80;56.80;;;38.49;30.61;100580.31;4992635;28;20617;-64
2022/08/05 10:37:32;;;;;;;2.73;2.63;;;36.00;58.60;;;37.62;31.38;100568.09;4993047;28;20992;-63
2022/08/05 10:40:26;;;;;;;3.50;3.30;;;35.40;59.30;;;36.69;33.13;100576.56;4978886;28;20619;-64
2022/08/05 10:43:29;;;;;;;3.23;3.00;;;34.60;60.50;;;36.05;34.03;100565.00;4977037;28;21217;-64
2022/08/05 10:46:06;;;;;;;3.40;3.20;;;34.10;61.50;;;34.75;36.29;100570.38;4977648;28;20623;-66
2022/08/05 10:48:38;;;;;;;3.60;3.37;;;33.00;63.60;;;34.40;37.08;100551.31;4994213;28;20713;-66
2022/08/05 10:51:41;;;;;;;4.40;3.50;;;32.40;65.00;;;34.22;38.07;100530.19;4993827;28;20619;-67
2022/08/05 10:55:01;;;;;;;3.40;3.20;;;32.30;66.10;;;34.29;37.60;100515.28;4978095;28;20678;-67
2022/08/05 10:57:28;;;;;;;3.60;3.20;;;32.10;67.10;;;34.63;37.13;100510.19;4976018;28;20618;-65
2022/08/05 11:00:28;;;;;;;4.20;3.77;;;32.30;67.30;;;34.60;38.01;100509.91;4976963;28;20653;-67
2022/08/05 11:03:04;;;;;;;3.20;3.00;;;32.30;67.50;;;34.54;37.71;100517.25;4992404;28;21024;-66
2022/08/05 11:06:12;;;;;;;3.80;3.50;;;32.30;67.60;;;34.51;37.58;100544.06;4993354;28;20607;-64
2022/08/05 11:09:17;;;;;;;3.20;3.00;;;32.30;67.90;;;34.47;37.78;100551.88;4976916;28;20715;-65
2022/08/05 11:11:52;;;;;;;3.30;3.10;;;32.30;68.40;;;34.27;39.22;100554.53;4962182;28;21318;-65
2022/08/05 11:14:28;;;;;;;3.87;3.53;;;32.20;69.20;;;34.07;39.63;100568.88;4976339;28;20629;-63